createdAt,value
2019-05-22T00:03:47.115Z,97927.37
2019-05-22T00:07:52.072Z,97928.28
2019-05-22T00:11:58.613Z,97927.44
2019-05-22T00:16:04.088Z,97927.89
2019-05-22T00:20:11.326Z,97932.84
2019-05-22T00:24:19.503Z,97922.80
2019-05-22T00:28:25.543Z,97924.87
2019-05-22T00:32:30.851Z,97926.73
2019-05-22T00:36:36.096Z,97936.69
2019-05-22T00:40:42.805Z,97934.22
2019-05-22T00:44:48.273Z,97936.20
2019-05-22T00:48:54.315Z,97934.89
2019-05-22T00:53:02.566Z,97942.65
2019-05-22T00:57:13.261Z,97945.12
2019-05-22T01:01:22.441Z,97946.59
2019-05-22T01:05:30.092Z,97951.27
2019-05-22T01:09:44.244Z,97952.12
2019-05-22T01:13:50.007Z,97951.45
2019-05-22T01:17:57.026Z,97948.59
2019-05-22T01:22:02.248Z,97957.85
2019-05-22T01:26:09.165Z,97964.11
2019-05-22T01:30:19.042Z,97961.25
2019-05-22T01:34:28.259Z,97957.67
2019-05-22T01:38:34.830Z,97960.00
2019-05-22T01:42:41.640Z,97960.39
2019-05-22T01:46:46.536Z,97963.88
2019-05-22T01:50:55.347Z,97960.84
2019-05-22T01:55:01.617Z,97961.77
2019-05-22T01:59:08.171Z,97966.56
2019-05-22T02:03:14.814Z,97968.79
2019-05-22T02:07:20.573Z,97969.80
2019-05-22T02:11:27.313Z,97969.06
2019-05-22T02:15:34.129Z,97966.44
2019-05-22T02:19:39.270Z,97961.56
2019-05-22T02:23:45.710Z,97964.24
2019-05-22T02:27:51.620Z,97977.00
2019-05-22T02:31:58.233Z,97973.73
2019-05-22T02:36:04.515Z,97974.04
2019-05-22T02:40:15.903Z,97965.70
2019-05-22T02:44:22.837Z,97968.88
2019-05-22T02:48:28.191Z,97967.57
2019-05-22T02:52:33.277Z,97973.19
2019-05-22T02:56:38.440Z,97965.01
2019-05-22T03:00:48.943Z,97971.23
2019-05-22T03:05:03.905Z,97976.63
2019-05-22T03:09:18.273Z,97971.08
2019-05-22T03:13:26.401Z,97974.48
2019-05-22T03:17:31.443Z,97984.06
2019-05-22T03:21:36.719Z,97976.08
2019-05-22T03:25:43.634Z,97988.70
2019-05-22T03:29:53.417Z,97986.94
2019-05-22T03:34:00.031Z,97990.51
2019-05-22T03:38:05.177Z,97997.44
2019-05-22T03:42:11.914Z,98000.00
2019-05-22T03:46:23.344Z,98005.25
2019-05-22T03:50:29.502Z,98004.00
2019-05-22T03:54:36.227Z,98007.08
2019-05-22T03:58:42.071Z,98021.60
2019-05-22T04:02:51.809Z,98014.33
2019-05-22T04:06:57.728Z,98016.10
2019-05-22T04:11:05.148Z,98023.42
2019-05-22T04:15:13.720Z,98029.88
2019-05-22T04:19:18.611Z,98032.95
2019-05-22T04:23:24.127Z,98031.70
2019-05-22T04:27:30.744Z,98031.09
2019-05-22T04:31:38.686Z,98034.97
2019-05-22T04:35:43.821Z,98043.25
2019-05-22T04:39:50.627Z,98042.39
2019-05-22T04:43:55.530Z,98049.16
2019-05-22T04:48:02.450Z,98043.66
2019-05-22T04:52:07.992Z,98042.34
2019-05-22T04:56:12.951Z,98056.02
2019-05-22T05:00:19.873Z,98052.03
2019-05-22T05:04:25.678Z,98060.61
2019-05-22T05:08:30.572Z,98067.37
2019-05-22T05:12:35.610Z,98066.45
2019-05-22T05:16:40.573Z,98073.07
2019-05-22T05:20:45.544Z,98073.13
2019-05-22T05:24:50.719Z,98071.59
2019-05-22T05:28:56.294Z,98070.23
2019-05-22T05:33:03.008Z,98080.19
2019-05-22T05:37:10.100Z,98079.52
2019-05-22T05:41:16.071Z,98087.19
2019-05-22T05:45:20.963Z,98088.48
2019-05-22T05:49:27.364Z,98091.75
2019-05-22T05:53:37.076Z,98096.34
2019-05-22T05:57:45.307Z,98105.84
2019-05-22T06:01:52.078Z,98105.38
2019-05-22T06:05:57.052Z,98108.03
2019-05-22T06:10:39.360Z,98106.64
2019-05-22T06:14:44.263Z,98107.14
2019-05-22T06:18:50.932Z,98109.05
2019-05-22T06:23:23.956Z,98110.36
2019-05-22T06:27:33.332Z,98107.76
2019-05-22T06:31:50.219Z,98111.41
2019-05-22T06:35:55.197Z,98115.34
2019-05-22T06:40:01.229Z,98125.42
2019-05-22T06:44:30.101Z,98122.25
2019-05-22T06:48:35.053Z,98117.30
2019-05-22T06:52:40.102Z,98126.24
2019-05-22T06:56:44.990Z,98134.50
2019-05-22T07:00:49.963Z,98127.01
2019-05-22T07:04:55.395Z,98128.98
2019-05-22T07:09:00.285Z,98132.77
2019-05-22T07:13:05.623Z,98151.87
2019-05-22T07:17:12.057Z,98157.75
2019-05-22T07:21:16.968Z,98163.95
2019-05-22T07:25:22.697Z,98162.58
2019-05-22T07:29:27.858Z,98168.11
2019-05-22T07:33:33.799Z,98167.27
2019-05-22T07:37:42.468Z,98165.23
2019-05-22T07:41:47.520Z,98164.72
2019-05-22T07:45:54.490Z,98174.52
2019-05-22T07:49:59.517Z,98169.13
2019-05-22T07:54:05.740Z,98169.76
2019-05-22T07:58:13.108Z,98176.28
2019-05-22T08:02:18.591Z,98184.69
2019-05-22T08:06:23.834Z,98189.88
2019-05-22T08:10:29.239Z,98196.55
2019-05-22T08:14:34.296Z,98190.66
2019-05-22T08:18:39.753Z,98187.17
2019-05-22T08:22:47.250Z,98191.45
2019-05-22T08:26:54.866Z,98195.33
2019-05-22T08:30:59.658Z,98197.93
2019-05-22T08:35:07.423Z,98207.47
2019-05-22T08:39:14.334Z,98204.21
2019-05-22T08:43:19.784Z,98209.72
2019-05-22T08:47:25.230Z,98197.85
2019-05-22T08:51:30.308Z,98197.85
2019-05-22T08:55:36.173Z,98217.83
2019-05-22T08:59:42.562Z,98202.20
2019-05-22T09:03:48.006Z,98232.49
2019-05-22T09:07:53.078Z,98232.49
2019-05-22T09:11:58.117Z,98234.83
2019-05-22T09:16:04.815Z,98247.66
2019-05-22T09:20:10.181Z,98247.50
2019-05-22T09:24:17.362Z,98219.38
2019-05-22T09:28:22.262Z,98219.38
2019-05-22T09:32:27.162Z,98243.25
2019-05-22T09:36:32.816Z,98248.55
2019-05-22T09:40:38.178Z,98248.55
2019-05-22T09:44:43.077Z,98244.13
2019-05-22T09:48:47.975Z,98244.13
2019-05-22T09:52:57.557Z,98256.31
2019-05-22T09:57:00.063Z,98251.09
2019-05-22T10:01:06.872Z,98248.73
2019-05-22T10:05:13.741Z,98253.42
2019-05-22T10:09:18.716Z,98261.00
2019-05-22T10:13:24.597Z,98275.75
2019-05-22T10:17:30.568Z,98275.66
2019-05-22T10:21:36.762Z,98280.89
2019-05-22T10:25:41.830Z,98285.98
2019-05-22T10:29:47.434Z,98282.84
2019-05-22T10:33:52.527Z,98286.68
2019-05-22T10:37:57.875Z,98281.50
2019-05-22T10:42:02.766Z,98288.83
2019-05-22T10:46:09.333Z,98289.74
2019-05-22T10:50:15.467Z,98297.12
2019-05-22T10:54:20.635Z,98290.91
2019-05-22T10:58:25.700Z,98297.91
2019-05-22T11:02:31.817Z,98297.05
2019-05-22T11:06:37.608Z,98299.80
2019-05-22T11:10:45.145Z,98301.03
2019-05-22T11:14:49.172Z,98300.10
2019-05-22T11:18:55.882Z,98305.20
2019-05-22T11:23:00.988Z,98311.67
2019-05-22T11:27:06.442Z,98310.94
2019-05-22T11:31:11.708Z,98309.96
2019-05-22T11:35:18.172Z,98304.58
2019-05-22T11:39:38.189Z,98303.80
2019-05-22T11:43:30.738Z,98303.91
2019-05-22T11:47:35.702Z,98301.73
2019-05-22T11:51:40.677Z,98300.25
2019-05-22T11:55:46.497Z,98301.65
2019-05-22T11:59:51.797Z,98297.23
2019-05-22T12:03:59.306Z,98300.36
2019-05-22T12:08:06.226Z,98295.31
2019-05-22T12:12:12.074Z,98296.00
2019-05-22T12:16:18.123Z,98299.48
2019-05-22T12:20:24.837Z,98308.31
2019-05-22T12:24:36.634Z,98300.23
2019-05-22T12:28:36.956Z,98302.94
2019-05-22T12:32:42.280Z,98295.67
2019-05-22T12:36:51.018Z,98297.02
2019-05-22T12:40:54.156Z,98294.13
2019-05-22T12:44:59.372Z,98300.96
2019-05-22T12:49:08.522Z,98294.23
2019-05-22T12:53:12.678Z,98294.82
2019-05-22T12:57:18.887Z,98298.78
2019-05-22T13:01:26.019Z,98288.03
2019-05-22T13:05:32.596Z,98298.36
2019-05-22T13:09:38.248Z,98296.06
2019-05-22T13:13:43.283Z,98286.58
2019-05-22T13:17:49.515Z,98291.59
2019-05-22T13:21:56.738Z,98303.75
2019-05-22T13:26:02.971Z,98306.78
2019-05-22T13:30:09.615Z,98315.38
2019-05-22T13:34:16.651Z,98311.42
2019-05-22T13:38:22.008Z,98311.59
2019-05-22T13:42:27.115Z,98320.31
2019-05-22T13:46:32.416Z,98322.86
2019-05-22T13:50:37.421Z,98320.44
2019-05-22T13:54:44.434Z,98324.44
2019-05-22T13:58:49.757Z,98308.04
2019-05-22T14:02:54.737Z,98313.64
2019-05-22T14:06:59.897Z,98312.62
2019-05-22T14:11:06.103Z,98316.70
2019-05-22T14:15:12.048Z,98315.03
2019-05-22T14:19:17.311Z,98310.36
2019-05-22T14:23:22.330Z,98294.28
2019-05-22T14:27:27.300Z,98298.63
2019-05-22T14:31:33.405Z,98292.75
2019-05-22T14:35:48.489Z,98296.36
2019-05-22T14:39:47.290Z,98302.72
2019-05-22T14:43:52.521Z,98300.63
2019-05-22T14:47:57.475Z,98301.78
2019-05-22T14:52:03.372Z,98301.22
2019-05-22T14:56:10.950Z,98294.70
2019-05-22T15:00:19.466Z,98301.11
2019-05-22T15:04:25.898Z,98293.27
2019-05-22T15:08:31.048Z,98300.64
2019-05-22T15:12:36.353Z,98285.22
2019-05-22T15:16:41.392Z,98286.26
2019-05-22T15:21:02.462Z,98284.38
2019-05-22T15:25:10.648Z,98282.64
2019-05-22T15:29:15.535Z,98279.01
2019-05-22T15:33:20.515Z,98280.03
2019-05-22T15:37:26.246Z,98277.89
2019-05-22T15:41:32.562Z,98277.37
2019-05-22T15:45:39.980Z,98278.45
2019-05-22T15:49:45.208Z,98275.34
2019-05-22T15:53:50.174Z,98273.20
2019-05-22T15:57:58.166Z,98271.22
2019-05-22T16:02:04.874Z,98275.16
2019-05-22T16:06:11.045Z,98268.58
2019-05-22T16:10:16.160Z,98275.89
2019-05-22T16:14:21.908Z,98277.42
2019-05-22T16:18:29.337Z,98263.26
2019-05-22T16:22:36.046Z,98270.89
2019-05-22T16:26:42.484Z,98266.15
2019-05-22T16:30:48.891Z,98263.23
2019-05-22T16:34:54.935Z,98266.53
2019-05-22T16:39:00.652Z,98258.36
2019-05-22T16:43:07.125Z,98254.52
2019-05-22T16:47:12.972Z,98251.00
2019-05-22T16:51:19.768Z,98252.44
2019-05-22T16:55:26.051Z,98258.36
2019-05-22T16:59:31.494Z,98260.06
2019-05-22T17:03:36.800Z,98258.14
2019-05-22T17:07:43.902Z,98258.50
2019-05-22T17:11:50.800Z,98253.22
2019-05-22T17:15:56.446Z,98261.08
2019-05-22T17:20:02.386Z,98259.59
2019-05-22T17:24:11.485Z,98260.97
2019-05-22T17:28:17.823Z,98265.76
2019-05-22T17:32:25.691Z,98258.53
2019-05-22T17:36:31.634Z,98265.83
2019-05-22T17:40:37.337Z,98266.97
2019-05-22T17:44:45.919Z,98262.83
2019-05-22T17:48:53.018Z,98260.92
2019-05-22T17:52:58.943Z,98262.94
2019-05-22T17:57:05.294Z,98265.88
2019-05-22T18:01:11.767Z,98262.17
2019-05-22T18:05:18.670Z,98266.13
2019-05-22T18:09:23.716Z,98263.00
2019-05-22T18:13:28.750Z,98265.27
2019-05-22T18:17:33.895Z,98263.36
2019-05-22T18:21:40.579Z,98264.65
2019-05-22T18:25:45.695Z,98265.86
2019-05-22T18:29:52.237Z,98257.42
2019-05-22T18:33:57.156Z,98262.00
2019-05-22T18:38:04.620Z,98266.03
2019-05-22T18:42:09.825Z,98268.27
2019-05-22T18:46:16.468Z,98271.05
2019-05-22T18:50:21.513Z,98268.45
2019-05-22T18:54:26.427Z,98273.41
2019-05-22T18:58:31.581Z,98275.78
2019-05-22T19:02:36.816Z,98286.48
2019-05-22T19:06:42.554Z,98270.91
2019-05-22T19:10:47.505Z,98283.04
2019-05-22T19:14:52.359Z,98278.44
2019-05-22T19:18:57.239Z,98284.52
2019-05-22T19:23:02.144Z,98286.73
2019-05-22T19:27:08.075Z,98290.25
2019-05-22T19:31:13.153Z,98290.86
2019-05-22T19:35:18.390Z,98291.30
2019-05-22T19:39:23.434Z,98291.34
2019-05-22T19:43:28.892Z,98305.59
2019-05-22T19:47:34.142Z,98317.70
2019-05-22T19:51:39.493Z,98317.70
2019-05-22T19:55:45.434Z,98312.36
2019-05-22T19:59:50.853Z,98316.33
2019-05-22T20:03:57.256Z,98317.97
2019-05-22T20:08:02.231Z,98315.44
2019-05-22T20:12:09.014Z,98315.44
2019-05-22T20:16:14.151Z,98312.51
2019-05-22T20:20:19.855Z,98314.88
2019-05-22T20:24:25.290Z,98317.63
2019-05-22T20:28:31.297Z,98327.61
2019-05-22T20:32:38.071Z,98330.08
2019-05-22T20:36:43.050Z,98327.62
2019-05-22T20:40:48.033Z,98326.31
2019-05-22T20:44:53.556Z,98337.95
2019-05-22T20:49:00.703Z,98336.31
2019-05-22T20:53:07.368Z,98336.05
2019-05-22T20:57:13.363Z,98341.30
2019-05-22T21:01:18.837Z,98335.68
2019-05-22T21:05:23.787Z,98327.03
2019-05-22T21:09:29.758Z,98331.48
2019-05-22T21:13:35.542Z,98331.12
2019-05-22T21:17:42.086Z,98332.18
2019-05-22T21:21:47.892Z,98332.30
2019-05-22T21:25:52.843Z,98328.70
2019-05-22T21:29:58.076Z,98335.12
2019-05-22T21:34:04.210Z,98334.92
2019-05-22T21:38:09.384Z,98342.25
2019-05-22T21:42:15.990Z,98339.39
2019-05-22T21:46:20.878Z,98341.34
2019-05-22T21:50:26.117Z,98335.67
2019-05-22T21:54:31.186Z,98343.05
2019-05-22T21:58:37.099Z,98347.70
2019-05-22T22:02:45.110Z,98341.53
2019-05-22T22:06:52.614Z,98349.19
2019-05-22T22:10:58.522Z,98358.47
2019-05-22T22:15:04.753Z,98360.70
2019-05-22T22:19:11.561Z,98357.13
2019-05-22T22:23:17.685Z,98358.23
2019-05-22T22:27:23.034Z,98354.53
2019-05-22T22:31:30.458Z,98361.30
2019-05-22T22:35:35.865Z,98364.30
2019-05-22T22:39:43.048Z,98355.63
2019-05-22T22:43:49.008Z,98361.70
2019-05-22T22:47:54.061Z,98354.29
2019-05-22T22:52:01.002Z,98355.97
2019-05-22T22:56:08.322Z,98361.55
2019-05-22T23:00:16.284Z,98362.77
2019-05-22T23:04:24.492Z,98357.95
2019-05-22T23:08:31.763Z,98362.73
2019-05-22T23:12:38.353Z,98358.25
2019-05-22T23:16:44.196Z,98352.04
2019-05-22T23:20:48.824Z,98360.00
2019-05-22T23:24:56.151Z,98358.38
2019-05-22T23:29:01.907Z,98357.58
2019-05-22T23:33:06.776Z,98350.25
2019-05-22T23:37:14.874Z,98359.10
2019-05-22T23:41:20.439Z,98358.78
2019-05-22T23:45:26.668Z,98363.11
2019-05-22T23:49:32.028Z,98361.39
2019-05-22T23:53:37.576Z,98365.14
2019-05-22T23:57:43.506Z,98365.70
